Time;durP1;ratioP1;P1;durP2;ratioP2;P2;SDS_P1;SDS_P2;PMS_P1;PMS_P2;Temp;Humidity;BMP_temperature;BMP_pressure;BME280_temperature;BME280_humidity;BME280_pressure;Samples;Min_cycle;Max_cycle;Signal;HPM_P1;HPM_P2
2023/04/03 00:01:10;;;;;;;4.13;1.55;;;4.70;99.90;;;;;;4937859;29;20183;-73
2023/04/03 00:03:36;;;;;;;3.28;1.40;;;4.70;99.90;;;;;;4937123;29;20176;-74
2023/04/03 00:06:03;;;;;;;2.13;1.40;;;4.70;99.90;;;;;;4937166;29;20254;-74
2023/04/03 00:08:30;;;;;;;6.40;1.55;;;4.60;99.90;;;;;;4937710;29;20529;-72
2023/04/03 00:10:57;;;;;;;5.07;1.20;;;4.60;99.90;;;;;;4936992;29;20219;-73
2023/04/03 00:13:23;;;;;;;2.83;1.33;;;4.60;99.90;;;;;;4937374;29;20195;-73
2023/04/03 00:15:49;;;;;;;3.45;1.40;;;4.50;99.90;;;;;;4951850;29;20187;-72
2023/04/03 00:18:15;;;;;;;3.05;1.52;;;4.50;99.90;;;;;;4935718;29;20242;-74
2023/04/03 00:20:41;;;;;;;4.50;1.55;;;4.40;99.90;;;;;;4937123;29;20210;-74
2023/04/03 00:23:06;;;;;;;4.03;1.60;;;4.40;99.90;;;;;;4952030;29;20211;-72
2023/04/03 00:25:32;;;;;;;3.55;1.35;;;4.40;99.90;;;;;;4937697;29;20227;-73
2023/04/03 00:27:59;;;;;;;5.90;1.80;;;4.40;99.90;;;;;;4952248;29;20199;-73
2023/04/03 00:30:25;;;;;;;4.95;1.40;;;4.40;99.90;;;;;;4951943;29;20290;-73
2023/04/03 00:32:52;;;;;;;10.77;1.65;;;4.40;99.90;;;;;;4936709;29;20175;-73
2023/04/03 00:35:20;;;;;;;3.65;1.52;;;4.40;99.90;;;;;;4951637;29;20183;-73
2023/04/03 00:37:47;;;;;;;3.15;1.42;;;4.30;99.90;;;;;;4937122;29;20210;-73
2023/04/03 00:40:14;;;;;;;2.15;1.30;;;4.30;99.90;;;;;;4936654;29;20644;-73
2023/04/03 00:42:41;;;;;;;5.75;1.30;;;4.30;99.90;;;;;;4936757;29;20218;-74
2023/04/03 00:45:10;;;;;;;3.10;1.52;;;4.20;99.90;;;;;;4936723;29;20187;-73
2023/04/03 00:47:37;;;;;;;5.72;1.63;;;4.20;99.90;;;;;;4951450;28;20620;-73
2023/04/03 00:50:03;;;;;;;3.95;1.90;;;4.20;99.90;;;;;;4935348;29;20222;-73
2023/04/03 00:52:31;;;;;;;5.18;1.50;;;4.20;99.90;;;;;;4935118;29;20718;-73
2023/04/03 00:55:01;;;;;;;2.88;1.35;;;4.20;99.90;;;;;;4935559;29;20187;-73
2023/04/03 00:57:30;;;;;;;5.63;1.30;;;4.10;99.90;;;;;;4936301;29;20246;-73
2023/04/03 00:59:59;;;;;;;4.80;1.67;;;4.10;99.90;;;;;;4936410;29;20179;-73
2023/04/03 01:02:25;;;;;;;4.20;1.58;;;4.10;99.90;;;;;;4951394;29;20270;-73
2023/04/03 01:04:51;;;;;;;4.75;1.52;;;4.10;99.90;;;;;;4951018;29;20180;-73
2023/04/03 01:07:26;;;;;;;4.90;1.40;;;4.00;99.90;;;;;;4935132;29;20190;-73
2023/04/03 01:09:56;;;;;;;5.75;1.60;;;4.00;99.90;;;;;;4935083;29;20206;-72
2023/04/03 01:12:25;;;;;;;7.43;1.63;;;4.00;99.90;;;;;;4936733;28;20274;-73
2023/04/03 01:14:54;;;;;;;3.78;1.42;;;4.00;99.90;;;;;;4952197;29;20179;-79
2023/04/03 01:17:26;;;;;;;5.88;1.60;;;3.90;99.90;;;;;;4951235;28;20210;-73
2023/04/03 01:20:18;;;;;;;3.72;1.65;;;3.90;99.90;;;;;;4951337;29;20191;-72
2023/04/03 01:22:56;;;;;;;5.85;1.60;;;3.90;99.90;;;;;;4936116;29;20205;-72
2023/04/03 01:25:22;;;;;;;6.25;1.50;;;3.90;99.90;;;;;;4950875;29;20226;-72
2023/04/03 01:27:49;;;;;;;3.88;1.95;;;3.90;99.90;;;;;;4950737;29;20222;-72
2023/04/03 01:30:18;;;;;;;6.60;1.45;;;3.80;99.90;;;;;;4918196;29;20667;-73
2023/04/03 01:32:44;;;;;;;5.15;1.85;;;3.80;99.90;;;;;;4935942;29;20529;-73
2023/04/03 01:35:13;;;;;;;7.55;1.73;;;3.80;99.90;;;;;;4936461;29;20238;-73
2023/04/03 01:37:39;;;;;;;7.10;1.77;;;3.80;99.90;;;;;;4950776;29;20231;-73
2023/04/03 01:40:06;;;;;;;7.95;1.70;;;3.70;99.90;;;;;;4950609;29;20183;-73
2023/04/03 01:42:33;;;;;;;7.32;1.70;;;3.70;99.90;;;;;;4950714;29;20187;-73
2023/04/03 01:44:58;;;;;;;17.88;1.83;;;3.70;99.90;;;;;;4919026;29;20195;-74
2023/04/03 01:47:24;;;;;;;5.97;1.90;;;3.70;99.90;;;;;;4934550;29;20553;-73
2023/04/03 01:49:50;;;;;;;3.88;1.52;;;3.70;99.90;;;;;;4935499;29;20722;-73
2023/04/03 01:52:16;;;;;;;4.97;1.52;;;3.60;99.90;;;;;;4935371;29;20647;-72
2023/04/03 01:54:41;;;;;;;5.32;1.73;;;3.60;99.90;;;;;;4934372;29;20193;-72
2023/04/03 01:57:08;;;;;;;8.57;1.98;;;3.60;99.90;;;;;;4935801;29;20191;-73
2023/04/03 01:59:35;;;;;;;7.90;1.67;;;3.50;99.90;;;;;;4950524;29;20631;-73
2023/04/03 02:02:01;;;;;;;3.92;1.80;;;3.50;99.90;;;;;;4918912;29;20183;-72
2023/04/03 02:04:26;;;;;;;5.03;1.73;;;3.50;99.90;;;;;;4934514;29;20621;-74
2023/04/03 02:06:53;;;;;;;7.22;1.70;;;3.40;99.90;;;;;;4934453;29;20191;-72
2023/04/03 02:09:18;;;;;;;5.05;1.80;;;3.50;99.90;;;;;;4950376;29;20258;-72
2023/04/03 02:11:44;;;;;;;5.75;1.50;;;3.40;99.90;;;;;;4935840;29;20218;-73
2023/04/03 02:14:10;;;;;;;5.03;1.90;;;3.50;99.90;;;;;;4950695;29;20661;-73
2023/04/03 02:16:36;;;;;;;6.25;1.98;;;3.40;99.90;;;;;;4918839;29;20338;-73
2023/04/03 02:19:02;;;;;;;5.15;1.50;;;3.40;99.90;;;;;;4936105;29;20537;-72
2023/04/03 02:21:29;;;;;;;6.30;1.80;;;3.30;99.90;;;;;;4918834;29;20192;-72
2023/04/03 02:23:55;;;;;;;4.60;1.45;;;3.40;99.90;;;;;;4936148;29;20191;-72
2023/04/03 02:26:21;;;;;;;5.63;1.77;;;3.40;99.90;;;;;;4934071;29;20257;-72
2023/04/03 02:28:47;;;;;;;4.40;2.00;;;3.30;99.90;;;;;;4918591;29;20190;-72
2023/04/03 02:31:13;;;;;;;7.22;1.67;;;3.30;99.90;;;;;;4950275;29;20215;-76
2023/04/03 02:33:40;;;;;;;8.48;1.70;;;3.30;99.90;;;;;;4919443;29;20246;-72
2023/04/03 02:36:09;;;;;;;6.47;1.60;;;3.20;99.90;;;;;;4934880;29;20226;-72
2023/04/03 02:38:36;;;;;;;8.88;2.00;;;3.30;99.90;;;;;;4950344;29;20184;-73
2023/04/03 02:41:05;;;;;;;5.32;1.98;;;3.20;99.90;;;;;;4950751;28;20651;-71
2023/04/03 02:43:31;;;;;;;8.45;2.20;;;3.20;99.90;;;;;;4953305;28;20211;-72
2023/04/03 02:45:57;;;;;;;5.13;1.98;;;3.20;99.90;;;;;;4938856;29;20226;-72
2023/04/03 02:48:23;;;;;;;3.90;1.48;;;3.20;99.90;;;;;;4953220;29;20187;-72
2023/04/03 02:50:49;;;;;;;11.45;2.28;;;3.20;99.90;;;;;;4938930;29;20219;-74
2023/04/03 02:53:15;;;;;;;5.90;2.05;;;3.20;99.90;;;;;;4953358;29;20369;-72
2023/04/03 02:55:42;;;;;;;5.28;2.00;;;3.20;99.90;;;;;;4953437;29;20279;-72
2023/04/03 02:58:08;;;;;;;6.78;2.60;;;3.20;99.90;;;;;;4937394;29;20175;-72
2023/04/03 03:00:34;;;;;;;3.88;1.63;;;3.20;99.90;;;;;;4937307;29;20251;-72
2023/04/03 03:03:00;;;;;;;6.53;1.77;;;3.10;99.90;;;;;;4953919;28;20238;-72
2023/04/03 03:05:27;;;;;;;5.07;2.00;;;3.10;99.90;;;;;;4937554;29;20187;-72
2023/04/03 03:07:53;;;;;;;8.77;2.00;;;3.00;99.90;;;;;;4953264;28;20632;-73
2023/04/03 03:10:19;;;;;;;4.45;2.17;;;3.10;99.90;;;;;;4937242;29;20223;-72
2023/04/03 03:12:45;;;;;;;7.20;2.05;;;3.10;99.90;;;;;;4953280;28;20194;-72
2023/04/03 03:15:11;;;;;;;10.02;2.13;;;3.00;99.90;;;;;;4938375;29;20190;-72
2023/04/03 03:17:37;;;;;;;3.80;1.95;;;3.00;99.90;;;;;;4952946;28;20263;-72
2023/04/03 03:20:05;;;;;;;7.50;2.22;;;3.00;99.90;;;;;;4938345;29;20293;-72
2023/04/03 03:22:31;;;;;;;6.20;2.00;;;3.00;99.90;;;;;;4952843;29;20546;-73
2023/04/03 03:24:57;;;;;;;7.75;2.00;;;2.90;99.90;;;;;;4937930;29;20238;-73
2023/04/03 03:27:23;;;;;;;5.78;2.20;;;2.90;99.90;;;;;;4936792;29;20195;-73
2023/04/03 03:29:50;;;;;;;7.75;2.25;;;2.90;99.90;;;;;;4952640;29;20286;-73
2023/04/03 03:32:15;;;;;;;5.55;2.15;;;2.90;99.90;;;;;;4938473;29;20255;-73
2023/04/03 03:34:41;;;;;;;5.68;2.00;;;2.80;99.90;;;;;;4938297;29;20608;-72
2023/04/03 03:37:07;;;;;;;7.25;2.22;;;2.80;99.90;;;;;;4953279;29;20183;-72
2023/04/03 03:39:33;;;;;;;9.68;2.08;;;2.80;99.90;;;;;;4952484;29;20187;-73
2023/04/03 03:41:59;;;;;;;5.28;2.22;;;2.80;99.90;;;;;;4952501;29;20183;-73
2023/04/03 03:44:25;;;;;;;3.92;1.88;;;2.70;99.90;;;;;;4952992;29;20306;-73
2023/04/03 03:46:52;;;;;;;5.70;2.42;;;2.70;99.90;;;;;;4952478;29;20191;-72
2023/04/03 03:49:18;;;;;;;5.20;2.25;;;2.70;99.90;;;;;;4952396;29;20279;-73
2023/04/03 03:51:44;;;;;;;6.88;2.20;;;2.70;99.90;;;;;;4952242;29;20266;-73
2023/04/03 03:54:10;;;;;;;6.22;2.20;;;2.60;99.90;;;;;;4951228;28;20242;-73
2023/04/03 03:56:36;;;;;;;5.32;2.05;;;2.70;99.90;;;;;;4952227;29;20194;-73
2023/04/03 03:59:02;;;;;;;6.07;2.38;;;2.60;99.90;;;;;;4952018;28;20191;-73
2023/04/03 04:01:28;;;;;;;6.65;2.13;;;2.60;99.90;;;;;;4952257;29;20183;-74
2023/04/03 04:03:55;;;;;;;5.75;2.33;;;2.60;99.90;;;;;;4937788;29;20242;-73
2023/04/03 04:06:25;;;;;;;6.43;2.58;;;2.50;99.90;;;;;;4936913;29;20239;-73
2023/04/03 04:08:53;;;;;;;6.32;2.08;;;2.60;99.90;;;;;;4935990;29;20616;-74
2023/04/03 04:11:19;;;;;;;8.82;2.63;;;2.50;99.90;;;;;;4935902;29;20667;-73
2023/04/03 04:13:46;;;;;;;7.85;2.13;;;2.50;99.90;;;;;;4936082;29;20214;-73
2023/04/03 04:16:13;;;;;;;8.27;2.05;;;2.50;99.90;;;;;;4935716;29;20199;-73
2023/04/03 04:18:39;;;;;;;6.10;2.30;;;2.50;99.90;;;;;;4920097;29;20202;-73
2023/04/03 04:21:05;;;;;;;7.43;2.55;;;2.50;99.90;;;;;;4936995;29;20626;-73
2023/04/03 04:23:31;;;;;;;6.25;2.60;;;2.50;99.90;;;;;;4935707;29;20627;-73
2023/04/03 04:25:58;;;;;;;6.53;2.50;;;2.40;99.90;;;;;;4952231;29;20316;-74
2023/04/03 04:28:24;;;;;;;9.25;2.60;;;2.40;99.90;;;;;;4951533;29;20329;-75
2023/04/03 04:30:53;;;;;;;10.13;2.40;;;2.40;99.90;;;;;;4936381;29;20218;-73
2023/04/03 04:33:21;;;;;;;5.18;2.17;;;2.30;99.90;;;;;;4935547;29;20658;-73
2023/04/03 04:35:48;;;;;;;5.05;2.40;;;2.30;99.90;;;;;;4951602;28;20285;-73
2023/04/03 04:38:14;;;;;;;6.07;2.22;;;2.30;99.90;;;;;;4951411;28;20226;-74
2023/04/03 04:40:41;;;;;;;6.13;2.20;;;2.20;99.90;;;;;;4936797;29;20242;-73
2023/04/03 04:43:06;;;;;;;10.88;2.55;;;2.20;99.90;;;;;;4919605;29;20635;-73
2023/04/03 04:45:33;;;;;;;9.23;2.65;;;2.10;99.90;;;;;;4935554;29;20312;-73
2023/04/03 04:47:58;;;;;;;7.82;2.38;;;2.10;99.90;;;;;;4951470;29;20655;-77
2023/04/03 04:50:25;;;;;;;10.70;2.72;;;2.00;99.90;;;;;;4950747;28;20230;-73
2023/04/03 04:52:52;;;;;;;7.55;2.80;;;2.00;99.90;;;;;;4950721;29;20628;-73
2023/04/03 04:55:19;;;;;;;10.65;2.33;;;2.00;99.90;;;;;;4936429;29;20318;-73
2023/04/03 04:57:45;;;;;;;8.00;2.67;;;2.00;99.90;;;;;;4935278;29;20624;-73
2023/04/03 05:00:11;;;;;;;7.45;2.70;;;1.90;99.90;;;;;;4950874;29;20622;-73
2023/04/03 05:02:38;;;;;;;6.10;2.67;;;1.90;99.90;;;;;;4936100;29;20187;-73
2023/04/03 05:05:04;;;;;;;9.65;2.78;;;1.90;99.90;;;;;;4951177;28;20270;-73
2023/04/03 05:07:29;;;;;;;7.03;2.72;;;1.90;99.90;;;;;;4936761;29;20179;-73
2023/04/03 05:09:57;;;;;;;6.10;2.78;;;1.90;99.90;;;;;;4950942;29;20223;-73
2023/04/03 05:12:23;;;;;;;7.85;3.13;;;1.90;99.90;;;;;;4935092;29;20187;-73
2023/04/03 05:14:55;;;;;;;9.60;2.70;;;1.90;99.90;;;;;;4935826;29;20187;-73
2023/04/03 05:17:21;;;;;;;8.07;2.85;;;1.90;99.90;;;;;;4951468;29;20284;-73
2023/04/03 05:19:50;;;;;;;10.07;2.85;;;1.90;99.90;;;;;;4934914;29;20187;-73
2023/04/03 05:22:19;;;;;;;6.53;2.45;;;1.90;99.90;;;;;;4950507;28;20287;-73
2023/04/03 05:24:45;;;;;;;10.98;2.97;;;1.90;99.90;;;;;;4918836;29;20648;-71
2023/04/03 05:27:11;;;;;;;8.48;3.20;;;1.90;99.90;;;;;;4950825;29;20557;-72
2023/04/03 05:29:43;;;;;;;7.65;2.75;;;1.80;99.90;;;;;;4950495;29;20574;-73
2023/04/03 05:32:11;;;;;;;9.52;2.67;;;1.80;99.90;;;;;;4934556;29;20195;-72
2023/04/03 05:34:37;;;;;;;11.30;2.90;;;1.80;99.90;;;;;;4951461;29;20219;-72
2023/04/03 05:37:04;;;;;;;8.38;2.72;;;1.80;99.90;;;;;;4936508;29;20183;-73
2023/04/03 05:39:31;;;;;;;7.13;2.80;;;1.80;99.90;;;;;;4919822;29;20179;-72
2023/04/03 05:41:59;;;;;;;5.57;2.28;;;1.80;99.90;;;;;;4919285;29;20222;-72
2023/04/03 05:44:25;;;;;;;9.50;2.47;;;1.90;99.90;;;;;;4934667;29;20676;-72
2023/04/03 05:46:51;;;;;;;6.50;2.45;;;1.90;99.90;;;;;;4950721;29;20198;-72
2023/04/03 05:49:17;;;;;;;12.65;2.85;;;1.90;99.90;;;;;;4936466;29;20175;-73
2023/04/03 05:51:44;;;;;;;6.43;2.88;;;1.80;99.90;;;;;;4934226;29;20231;-73
2023/04/03 05:54:23;;;;;;;13.30;2.97;;;1.90;99.90;;;;;;4935486;29;20184;-72
2023/04/03 05:56:51;;;;;;;7.43;2.85;;;1.90;99.90;;;;;;4950880;28;20246;-74
2023/04/03 05:59:19;;;;;;;6.13;2.72;;;2.00;99.90;;;;;;4950146;29;20263;-75
2023/04/03 06:01:47;;;;;;;9.52;2.95;;;2.00;99.90;;;;;;4934786;29;20188;-73
2023/04/03 06:04:13;;;;;;;11.00;2.80;;;2.10;99.90;;;;;;4935801;29;20183;-74
2023/04/03 06:06:55;;;;;;;9.75;3.20;;;2.10;99.90;;;;;;4935765;29;20209;-74
2023/04/03 06:09:25;;;;;;;4.72;2.30;;;2.10;99.90;;;;;;4951194;29;20538;-74
2023/04/03 06:11:51;;;;;;;5.85;2.22;;;2.20;99.90;;;;;;4935263;29;20207;-73
2023/04/03 06:14:18;;;;;;;9.35;3.22;;;2.30;99.90;;;;;;4935116;29;20211;-72
2023/04/03 06:16:44;;;;;;;9.02;2.83;;;2.20;99.90;;;;;;4935796;29;20198;-73
2023/04/03 06:19:11;;;;;;;8.02;2.90;;;2.30;99.90;;;;;;4954834;29;20207;-73
2023/04/03 06:21:41;;;;;;;4.60;2.53;;;2.40;99.90;;;;;;4954231;29;20612;-73
2023/04/03 06:24:07;;;;;;;7.60;2.78;;;2.40;99.90;;;;;;4939935;29;20242;-72
2023/04/03 06:26:34;;;;;;;12.10;3.17;;;2.50;99.90;;;;;;4939394;29;20231;-77
2023/04/03 06:29:00;;;;;;;6.78;2.80;;;2.50;99.90;;;;;;4953538;29;20278;-73
2023/04/03 06:31:26;;;;;;;7.00;2.47;;;2.60;99.90;;;;;;4937470;29;20302;-72
2023/04/03 06:33:52;;;;;;;6.40;2.65;;;2.60;99.90;;;;;;4938769;29;20194;-73
2023/04/03 06:36:20;;;;;;;13.23;3.10;;;2.70;99.90;;;;;;4939457;29;20176;-72
2023/04/03 06:38:46;;;;;;;7.95;3.25;;;2.70;99.90;;;;;;4939146;29;20184;-73
2023/04/03 06:41:12;;;;;;;7.60;2.83;;;2.70;99.90;;;;;;4938853;29;20187;-72
2023/04/03 06:43:38;;;;;;;11.77;3.00;;;2.80;99.90;;;;;;4937768;29;20628;-73
2023/04/03 06:46:04;;;;;;;7.25;3.13;;;2.90;99.90;;;;;;4938733;29;20175;-73
2023/04/03 06:48:31;;;;;;;11.60;3.45;;;2.90;99.90;;;;;;4938662;29;20190;-74
2023/04/03 06:50:57;;;;;;;7.63;3.20;;;3.00;99.90;;;;;;4937426;29;20242;-72
2023/04/03 06:53:23;;;;;;;8.30;3.47;;;3.10;99.90;;;;;;4938325;29;20635;-74
2023/04/03 06:55:48;;;;;;;11.00;3.55;;;3.10;99.90;;;;;;4937506;29;20213;-74
2023/04/03 06:58:15;;;;;;;7.53;3.63;;;3.30;99.90;;;;;;4938246;29;20194;-73
2023/04/03 07:00:41;;;;;;;10.35;3.10;;;3.40;99.90;;;;;;4939075;29;20183;-74
2023/04/03 07:03:07;;;;;;;12.07;2.80;;;3.50;99.90;;;;;;4938303;29;20194;-74
2023/04/03 07:05:33;;;;;;;6.75;3.00;;;3.60;99.90;;;;;;4938628;29;20191;-73
2023/04/03 07:07:59;;;;;;;10.38;3.13;;;3.70;99.90;;;;;;4938285;29;20171;-74
2023/04/03 07:10:24;;;;;;;8.05;2.63;;;3.80;99.90;;;;;;4952842;29;20655;-75
2023/04/03 07:12:50;;;;;;;13.95;3.10;;;3.90;99.90;;;;;;4936823;29;20179;-74
2023/04/03 07:15:17;;;;;;;11.20;3.17;;;4.10;99.90;;;;;;4938082;29;20274;-73
2023/04/03 07:17:43;;;;;;;11.75;3.42;;;4.20;99.90;;;;;;4939172;29;20206;-77
2023/04/03 07:20:10;;;;;;;11.15;3.42;;;4.30;99.90;;;;;;4938085;29;20270;-74
2023/04/03 07:22:36;;;;;;;8.27;2.97;;;4.50;99.90;;;;;;4936623;29;20603;-73
2023/04/03 07:25:02;;;;;;;6.07;2.90;;;4.70;99.90;;;;;;4937164;29;20179;-73
2023/04/03 07:27:28;;;;;;;10.85;3.50;;;5.00;99.90;;;;;;4937118;29;20227;-74
2023/04/03 07:29:55;;;;;;;7.65;3.05;;;5.30;99.90;;;;;;4937720;29;20557;-73
2023/04/03 07:32:21;;;;;;;6.88;2.90;;;5.40;99.90;;;;;;4937681;29;20171;-74
2023/04/03 07:34:47;;;;;;;9.57;3.25;;;5.70;99.90;;;;;;4936824;29;20187;-76
2023/04/03 07:37:13;;;;;;;8.75;2.90;;;6.10;99.90;;;;;;4938191;29;20231;-74
2023/04/03 07:39:38;;;;;;;8.90;2.50;;;6.30;99.90;;;;;;4938177;29;20512;-74
2023/04/03 07:42:04;;;;;;;5.72;2.85;;;6.60;99.90;;;;;;4953437;29;20187;-74
2023/04/03 07:44:30;;;;;;;5.30;2.67;;;6.90;99.90;;;;;;4937641;29;20193;-78
2023/04/03 07:46:56;;;;;;;10.15;3.30;;;7.30;99.90;;;;;;4937586;29;20278;-74
2023/04/03 07:49:25;;;;;;;9.38;3.00;;;7.50;99.90;;;;;;4936371;29;20191;-75
2023/04/03 07:51:52;;;;;;;8.43;3.22;;;7.60;99.90;;;;;;4937423;29;20648;-74
2023/04/03 07:54:18;;;;;;;7.20;3.08;;;7.80;99.90;;;;;;4937482;29;20194;-74
2023/04/03 07:56:44;;;;;;;6.63;2.90;;;8.00;99.90;;;;;;4952412;29;20592;-75
2023/04/03 07:59:11;;;;;;;7.13;2.83;;;8.10;99.90;;;;;;4937442;29;20198;-74
2023/04/03 08:01:37;;;;;;;8.57;2.60;;;8.40;99.90;;;;;;4938275;29;20183;-78
2023/04/03 08:04:03;;;;;;;8.45;2.90;;;8.60;99.90;;;;;;4920277;29;20247;-74
2023/04/03 08:06:31;;;;;;;7.32;2.92;;;8.90;99.90;;;;;;4952278;29;20584;-74
2023/04/03 08:08:57;;;;;;;9.80;3.13;;;9.10;99.90;;;;;;4937689;29;20242;-74
2023/04/03 08:11:30;;;;;;;6.88;3.03;;;9.30;99.90;;;;;;4952812;29;20243;-75
2023/04/03 08:13:56;;;;;;;9.98;2.83;;;9.60;99.90;;;;;;4937503;29;20164;-75
2023/04/03 08:16:26;;;;;;;5.47;2.42;;;9.80;99.90;;;;;;4952693;29;20183;-75
2023/04/03 08:18:53;;;;;;;6.65;2.67;;;10.10;99.90;;;;;;4937325;29;20612;-74
2023/04/03 08:21:19;;;;;;;5.05;2.58;;;10.30;99.60;;;;;;4937579;29;20219;-75
2023/04/03 08:23:47;;;;;;;7.60;2.40;;;10.50;98.90;;;;;;4938035;29;20194;-74
2023/04/03 08:26:15;;;;;;;8.48;2.67;;;10.80;98.10;;;;;;4938611;29;20227;-74
2023/04/03 08:28:41;;;;;;;6.72;2.78;;;11.00;97.30;;;;;;4952355;29;20183;-77
2023/04/03 08:31:13;;;;;;;7.32;3.17;;;11.20;96.60;;;;;;4937029;29;20203;-78
2023/04/03 08:33:39;;;;;;;7.60;2.90;;;11.40;95.60;;;;;;4937407;29;20187;-76
2023/04/03 08:36:14;;;;;;;7.82;2.55;;;11.60;95.10;;;;;;4935529;29;20640;-75
2023/04/03 08:38:40;;;;;;;7.75;2.63;;;11.90;94.00;;;;;;4936282;29;20186;-76
2023/04/03 08:41:40;;;;;;;7.20;2.67;;;12.10;93.20;;;;;;4935463;29;20179;-75
2023/04/03 08:44:23;;;;;;;6.47;2.47;;;12.20;92.80;;;;;;4932857;29;20210;-75
2023/04/03 08:47:04;;;;;;;8.68;2.60;;;12.50;92.10;;;;;;4952009;29;20663;-75
2023/04/03 08:49:34;;;;;;;6.25;2.50;;;12.50;91.30;;;;;;4936673;29;20195;-75
2023/04/03 08:52:07;;;;;;;4.43;1.67;;;12.70;90.90;;;;;;4937370;29;20199;-76
2023/04/03 08:54:46;;;;;;;7.88;2.50;;;13.00;89.20;;;;;;4952367;29;20271;-76
2023/04/03 08:57:12;;;;;;;5.35;1.55;;;13.10;85.70;;;;;;4936997;29;20171;-75
2023/04/03 08:59:40;;;;;;;6.15;1.67;;;13.10;83.90;;;;;;4936571;29;20233;-75
2023/04/03 09:02:30;;;;;;;3.05;1.70;;;13.30;82.20;;;;;;4919563;29;20186;-75
2023/04/03 09:04:56;;;;;;;5.38;1.63;;;13.40;79.60;;;;;;4951317;29;20176;-75
2023/04/03 09:07:37;;;;;;;5.57;1.50;;;13.70;77.70;;;;;;4936276;29;20182;-75
2023/04/03 09:10:03;;;;;;;3.90;1.63;;;13.80;72.70;;;;;;4951999;29;20275;-75
2023/04/03 09:12:55;;;;;;;4.63;1.55;;;13.80;69.40;;;;;;4936372;29;20183;-75
2023/04/03 09:15:24;;;;;;;5.80;2.10;;;13.80;67.40;;;;;;4936230;29;20183;-75
2023/04/03 09:18:19;;;;;;;6.43;1.55;;;13.70;65.40;;;;;;4935261;29;20552;-76
2023/04/03 09:21:19;;;;;;;4.88;1.85;;;13.70;63.70;;;;;;4936022;29;20202;-75
2023/04/03 09:23:52;;;;;;;4.85;1.90;;;13.70;63.20;;;;;;4936395;29;20258;-76
2023/04/03 09:26:30;;;;;;;3.25;1.70;;;13.80;61.80;;;;;;4935014;29;20227;-75
2023/04/03 09:29:00;;;;;;;4.13;1.50;;;13.90;60.60;;;;;;4935678;29;20679;-75
2023/04/03 09:31:35;;;;;;;4.60;1.70;;;13.90;59.50;;;;;;4936683;29;20203;-74
2023/04/03 09:34:06;;;;;;;4.30;1.50;;;13.80;59.00;;;;;;4935848;29;20174;-75
2023/04/03 09:36:41;;;;;;;4.00;1.50;;;13.90;58.40;;;;;;4935203;29;20242;-82
2023/04/03 09:39:15;;;;;;;5.07;1.80;;;13.90;57.90;;;;;;4935763;29;20174;-75
2023/04/03 09:41:54;;;;;;;3.03;1.70;;;14.00;57.30;;;;;;4935911;29;20537;-75
2023/04/03 09:44:22;;;;;;;3.63;1.60;;;13.90;56.60;;;;;;4934672;29;20224;-75
2023/04/03 09:46:48;;;;;;;5.63;1.50;;;13.90;56.60;;;;;;4935510;29;20176;-74
2023/04/03 09:49:14;;;;;;;3.40;1.55;;;13.80;55.70;;;;;;4935731;29;20188;-74
2023/04/03 09:51:40;;;;;;;6.05;1.83;;;13.60;55.90;;;;;;4937270;29;20215;-75
2023/04/03 09:54:32;;;;;;;4.65;1.50;;;13.50;56.10;;;;;;4938354;29;20188;-74
2023/04/03 09:57:03;;;;;;;4.72;1.90;;;13.30;55.40;;;;;;4939006;29;20262;-73
2023/04/03 09:59:31;;;;;;;4.13;1.60;;;13.10;55.20;;;;;;4939839;29;20182;-74
2023/04/03 10:02:18;;;;;;;4.75;1.50;;;12.90;55.40;;;;;;4939596;29;20307;-74
2023/04/03 10:04:44;;;;;;;2.17;1.15;;;12.70;55.70;;;;;;4939453;29;20218;-72
2023/04/03 10:07:28;;;;;;;4.05;1.40;;;12.50;56.10;;;;;;4939732;29;20278;-74
2023/04/03 10:09:59;;;;;;;3.53;1.48;;;12.50;56.00;;;;;;4953933;29;20303;-74
2023/04/03 10:12:25;;;;;;;2.20;1.30;;;12.40;55.50;;;;;;4953729;29;20195;-74
2023/04/03 10:14:56;;;;;;;3.45;1.58;;;12.20;54.70;;;;;;4939923;29;20518;-77
2023/04/03 10:17:50;;;;;;;2.28;1.30;;;12.00;54.90;;;;;;4937909;29;20175;-74
2023/04/03 10:20:27;;;;;;;2.35;1.30;;;12.10;56.10;;;;;;4953714;29;20235;-74
2023/04/03 10:23:14;;;;;;;3.40;1.58;;;12.30;56.50;;;;;;4939258;29;20167;-77
2023/04/03 10:26:00;;;;;;;3.13;1.20;;;12.40;55.80;;;;;;4924074;29;20593;-73
2023/04/03 10:28:40;;;;;;;3.20;1.30;;;12.30;55.20;;;;;;4939965;29;20175;-75
2023/04/03 10:31:18;;;;;;;4.63;1.52;;;12.30;55.10;;;;;;4939074;29;20194;-74
2023/04/03 10:34:11;;;;;;;6.85;1.50;;;12.30;55.40;;;;;;4939791;29;20517;-74
2023/04/03 10:36:58;;;;;;;4.38;1.60;;;12.30;55.40;;;;;;4939706;29;20160;-75
2023/04/03 10:39:44;;;;;;;4.97;1.70;;;12.30;54.50;;;;;;4939156;29;20307;-75
2023/04/03 10:42:46;;;;;;;3.45;1.33;;;12.30;53.90;;;;;;4939161;29;20608;-76
2023/04/03 10:45:45;;;;;;;4.53;1.30;;;12.20;53.90;;;;;;4938886;29;20201;-75
2023/04/03 10:48:11;;;;;;;4.15;1.30;;;12.10;55.20;;;;;;4953941;29;20183;-74
2023/04/03 10:50:55;;;;;;;2.97;1.50;;;12.10;54.30;;;;;;4939141;29;20602;-74
2023/04/03 10:53:32;;;;;;;7.60;3.97;;;12.10;54.50;;;;;;4954102;29;20175;-81
2023/04/03 10:56:22;;;;;;;2.38;1.20;;;12.10;53.30;;;;;;4938738;29;20307;-74
2023/04/03 10:59:21;;;;;;;3.45;1.25;;;12.10;53.60;;;;;;4938653;29;20195;-74
2023/04/03 11:02:15;;;;;;;3.55;1.38;;;12.00;53.60;;;;;;4953061;29;20188;-74
2023/04/03 11:04:44;;;;;;;3.40;1.23;;;12.00;53.80;;;;;;4938287;29;20183;-75
2023/04/03 11:07:18;;;;;;;5.03;1.30;;;12.10;52.80;;;;;;4937194;29;20605;-75
2023/04/03 11:09:49;;;;;;;3.80;1.55;;;12.20;52.70;;;;;;4952757;29;20171;-75
2023/04/03 11:12:28;;;;;;;14.40;2.00;;;12.20;52.80;;;;;;4937776;29;20215;-76
2023/04/03 11:14:56;;;;;;;2.28;1.20;;;12.10;51.60;;;;;;4953397;29;20651;-77
2023/04/03 11:17:53;;;;;;;3.53;1.30;;;11.90;51.90;;;;;;4938336;29;20703;-74
2023/04/03 11:20:28;;;;;;;2.83;0.95;;;11.90;52.00;;;;;;4938502;29;20172;-75
2023/04/03 11:23:14;;;;;;;4.32;1.38;;;11.90;50.80;;;;;;4937922;29;20183;-74
2023/04/03 11:25:42;;;;;;;2.75;1.50;;;11.90;51.40;;;;;;4934057;29;20556;-75
2023/04/03 11:28:14;;;;;;;4.03;1.40;;;11.90;51.50;;;;;;4938156;29;20183;-77
2023/04/03 11:30:49;;;;;;;1.80;1.15;;;11.90;52.10;;;;;;4937705;29;20196;-75
2023/04/03 11:33:23;;;;;;;10.48;1.75;;;12.00;50.80;;;;;;4937240;29;20181;-76
2023/04/03 11:35:53;;;;;;;2.88;1.17;;;12.10;50.70;;;;;;4938859;29;20190;-75
2023/04/03 11:38:30;;;;;;;6.15;1.33;;;12.10;51.00;;;;;;4937650;29;20698;-75
2023/04/03 11:40:57;;;;;;;4.13;1.30;;;12.10;51.20;;;;;;4938224;29;20222;-75
2023/04/03 11:43:26;;;;;;;3.97;1.10;;;12.00;51.00;;;;;;4938203;29;20214;-75
2023/04/03 11:46:02;;;;;;;9.70;1.50;;;11.90;50.90;;;;;;4938284;29;20238;-77
2023/04/03 11:48:28;;;;;;;5.47;1.30;;;11.80;51.10;;;;;;4952339;29;20170;-75
2023/04/03 11:50:55;;;;;;;5.38;1.38;;;11.70;51.10;;;;;;4936334;29;20219;-75
2023/04/03 11:53:32;;;;;;;4.20;1.20;;;11.70;51.40;;;;;;4937800;29;20219;-74
2023/04/03 11:56:04;;;;;;;2.67;1.30;;;11.90;52.30;;;;;;4937387;29;20181;-74
2023/04/03 11:58:38;;;;;;;7.00;1.40;;;12.00;51.00;;;;;;4937733;29;20191;-74
2023/04/03 12:01:10;;;;;;;4.55;1.48;;;11.90;50.90;;;;;;4935967;29;20179;-74
2023/04/03 12:03:39;;;;;;;3.75;1.45;;;11.80;51.10;;;;;;4936571;29;20171;-74
2023/04/03 12:06:09;;;;;;;6.32;1.52;;;11.70;51.30;;;;;;4939305;29;20175;-73
2023/04/03 12:08:47;;;;;;;2.75;1.20;;;11.60;51.50;;;;;;4938709;29;20210;-74
2023/04/03 12:11:12;;;;;;;2.45;1.35;;;11.50;51.80;;;;;;4938116;29;20271;-75
2023/04/03 12:14:03;;;;;;;2.67;1.38;;;11.50;52.30;;;;;;4935262;28;20206;-74
2023/04/03 12:16:53;;;;;;;3.08;1.38;;;11.50;52.90;;;;;;4934675;29;20188;-74
2023/04/03 12:19:43;;;;;;;3.72;1.30;;;11.50;53.50;;;;;;4937654;29;20179;-76
2023/04/03 12:22:20;;;;;;;2.92;1.00;;;11.60;53.90;;;;;;4936756;29;20183;-75
2023/04/03 12:24:51;;;;;;;4.93;1.00;;;11.80;53.50;;;;;;4937351;29;20171;-75
2023/04/03 12:27:27;;;;;;;11.63;3.55;;;11.90;51.80;;;;;;4937483;29;20464;-73
2023/04/03 12:30:11;;;;;;;3.88;1.40;;;11.90;51.70;;;;;;4936943;29;20266;-75
2023/04/03 12:32:45;;;;;;;2.65;1.27;;;11.90;51.90;;;;;;4936905;29;20179;-73
2023/04/03 12:35:28;;;;;;;4.80;1.30;;;11.90;52.20;;;;;;4936559;29;20179;-74
2023/04/03 12:38:33;;;;;;;2.45;1.10;;;11.80;52.30;;;;;;4937119;29;20258;-75
2023/04/03 12:41:18;;;;;;;1.95;1.27;;;11.80;51.40;;;;;;4936952;29;20210;-75
2023/04/03 12:44:10;;;;;;;2.00;1.13;;;11.80;51.60;;;;;;4936946;29;20274;-76
2023/04/03 12:46:52;;;;;;;3.35;1.15;;;11.80;51.10;;;;;;4937371;29;20557;-75
2023/04/03 12:49:29;;;;;;;2.40;1.08;;;11.80;50.50;;;;;;4936430;29;20186;-74
2023/04/03 12:51:56;;;;;;;2.97;1.20;;;11.70;50.20;;;;;;4936509;29;20630;-74
2023/04/03 12:54:41;;;;;;;3.17;1.40;;;11.70;49.90;;;;;;4951814;29;20183;-75
2023/04/03 12:57:23;;;;;;;4.53;1.20;;;11.70;50.10;;;;;;4936438;29;20680;-74
2023/04/03 12:59:49;;;;;;;6.13;1.50;;;11.70;50.20;;;;;;4936631;29;20646;-75
2023/04/03 13:02:28;;;;;;;3.70;1.20;;;11.70;50.30;;;;;;4935905;29;20520;-77
2023/04/03 13:05:04;;;;;;;3.60;1.20;;;11.80;49.90;;;;;;4935684;29;20296;-75
2023/04/03 13:07:34;;;;;;;3.67;1.42;;;11.80;49.90;;;;;;4935407;29;20409;-75
2023/04/03 13:10:09;;;;;;;2.58;1.20;;;11.90;49.00;;;;;;4936268;29;20183;-79